sensor_id;sensor_type;location;lat;lon;timestamp;P1;durP1;ratioP1;P2;durP2;ratioP2
13868;SDS011;7004;48.206;16.402;2023-10-19T00:01:13;13.77;;;12.13;;
13868;SDS011;7004;48.206;16.402;2023-10-19T00:03:41;15.97;;;12.90;;
13868;SDS011;7004;48.206;16.402;2023-10-19T00:06:10;20.73;;;12.03;;
13868;SDS011;7004;48.206;16.402;2023-10-19T00:08:38;16.73;;;11.83;;
13868;SDS011;7004;48.206;16.402;2023-10-19T00:11:07;15.27;;;12.27;;
13868;SDS011;7004;48.206;16.402;2023-10-19T00:13:39;17.60;;;13.07;;
13868;SDS011;7004;48.206;16.402;2023-10-19T00:16:06;16.47;;;12.50;;
13868;SDS011;7004;48.206;16.402;2023-10-19T00:18:42;14.87;;;12.70;;
13868;SDS011;7004;48.206;16.402;2023-10-19T00:21:18;17.00;;;13.73;;
13868;SDS011;7004;48.206;16.402;2023-10-19T00:23:46;18.67;;;13.33;;
13868;SDS011;7004;48.206;16.402;2023-10-19T00:26:13;19.47;;;13.10;;
13868;SDS011;7004;48.206;16.402;2023-10-19T00:28:45;17.33;;;13.33;;
13868;SDS011;7004;48.206;16.402;2023-10-19T00:31:14;16.20;;;12.47;;
13868;SDS011;7004;48.206;16.402;2023-10-19T00:33:41;17.67;;;13.77;;
13868;SDS011;7004;48.206;16.402;2023-10-19T00:36:08;16.30;;;12.70;;
13868;SDS011;7004;48.206;16.402;2023-10-19T00:38:38;18.43;;;13.93;;
13868;SDS011;7004;48.206;16.402;2023-10-19T00:41:16;17.00;;;13.67;;
13868;SDS011;7004;48.206;16.402;2023-10-19T00:43:55;18.50;;;13.47;;
13868;SDS011;7004;48.206;16.402;2023-10-19T00:46:29;19.63;;;13.57;;
13868;SDS011;7004;48.206;16.402;2023-10-19T00:49:03;17.83;;;13.87;;
13868;SDS011;7004;48.206;16.402;2023-10-19T00:51:47;15.57;;;12.73;;
13868;SDS011;7004;48.206;16.402;2023-10-19T00:54:28;17.57;;;13.53;;
13868;SDS011;7004;48.206;16.402;2023-10-19T00:57:03;16.17;;;13.90;;
13868;SDS011;7004;48.206;16.402;2023-10-19T00:59:32;16.43;;;12.90;;
13868;SDS011;7004;48.206;16.402;2023-10-19T01:02:08;16.90;;;14.43;;
13868;SDS011;7004;48.206;16.402;2023-10-19T01:04:46;18.13;;;13.90;;
13868;SDS011;7004;48.206;16.402;2023-10-19T01:07:27;18.37;;;13.80;;
13868;SDS011;7004;48.206;16.402;2023-10-19T01:09:59;20.43;;;14.73;;
13868;SDS011;7004;48.206;16.402;2023-10-19T01:12:31;21.47;;;13.83;;
13868;SDS011;7004;48.206;16.402;2023-10-19T01:15:14;18.97;;;14.43;;
13868;SDS011;7004;48.206;16.402;2023-10-19T01:17:44;18.33;;;14.40;;
13868;SDS011;7004;48.206;16.402;2023-10-19T01:20:38;19.33;;;13.90;;
13868;SDS011;7004;48.206;16.402;2023-10-19T01:23:16;18.10;;;14.17;;
13868;SDS011;7004;48.206;16.402;2023-10-19T01:25:51;17.40;;;14.67;;
13868;SDS011;7004;48.206;16.402;2023-10-19T01:28:33;21.27;;;15.73;;
13868;SDS011;7004;48.206;16.402;2023-10-19T01:31:08;19.47;;;15.20;;
13868;SDS011;7004;48.206;16.402;2023-10-19T01:33:50;18.77;;;15.03;;
13868;SDS011;7004;48.206;16.402;2023-10-19T01:36:16;22.63;;;15.70;;
13868;SDS011;7004;48.206;16.402;2023-10-19T01:38:48;22.37;;;16.27;;
13868;SDS011;7004;48.206;16.402;2023-10-19T01:41:18;19.07;;;15.20;;
13868;SDS011;7004;48.206;16.402;2023-10-19T01:43:46;21.00;;;15.70;;
13868;SDS011;7004;48.206;16.402;2023-10-19T01:46:16;19.27;;;16.50;;
13868;SDS011;7004;48.206;16.402;2023-10-19T01:48:59;19.87;;;15.70;;
13868;SDS011;7004;48.206;16.402;2023-10-19T01:51:33;20.37;;;16.27;;
13868;SDS011;7004;48.206;16.402;2023-10-19T01:54:09;19.67;;;15.70;;
13868;SDS011;7004;48.206;16.402;2023-10-19T01:56:36;21.37;;;16.43;;
13868;SDS011;7004;48.206;16.402;2023-10-19T01:59:08;23.50;;;16.43;;
13868;SDS011;7004;48.206;16.402;2023-10-19T02:01:34;21.27;;;16.57;;
13868;SDS011;7004;48.206;16.402;2023-10-19T02:04:05;21.10;;;16.10;;
13868;SDS011;7004;48.206;16.402;2023-10-19T02:06:41;19.20;;;16.53;;
13868;SDS011;7004;48.206;16.402;2023-10-19T02:09:09;23.77;;;17.90;;
13868;SDS011;7004;48.206;16.402;2023-10-19T02:11:49;21.43;;;16.97;;
13868;SDS011;7004;48.206;16.402;2023-10-19T02:14:27;22.87;;;17.73;;
13868;SDS011;7004;48.206;16.402;2023-10-19T02:16:57;20.57;;;17.70;;
13868;SDS011;7004;48.206;16.402;2023-10-19T02:19:28;22.70;;;17.33;;
13868;SDS011;7004;48.206;16.402;2023-10-19T02:21:57;20.70;;;17.53;;
13868;SDS011;7004;48.206;16.402;2023-10-19T02:24:29;21.20;;;17.43;;
13868;SDS011;7004;48.206;16.402;2023-10-19T02:26:57;24.37;;;19.17;;
13868;SDS011;7004;48.206;16.402;2023-10-19T02:29:24;23.50;;;17.67;;
13868;SDS011;7004;48.206;16.402;2023-10-19T02:31:51;21.67;;;17.90;;
13868;SDS011;7004;48.206;16.402;2023-10-19T02:34:22;22.03;;;16.90;;
13868;SDS011;7004;48.206;16.402;2023-10-19T02:36:48;24.27;;;18.33;;
13868;SDS011;7004;48.206;16.402;2023-10-19T02:39:15;22.53;;;18.77;;
13868;SDS011;7004;48.206;16.402;2023-10-19T02:41:44;24.17;;;18.30;;
13868;SDS011;7004;48.206;16.402;2023-10-19T02:44:18;23.13;;;17.83;;
13868;SDS011;7004;48.206;16.402;2023-10-19T02:46:54;23.57;;;18.17;;
13868;SDS011;7004;48.206;16.402;2023-10-19T02:49:25;23.97;;;17.47;;
13868;SDS011;7004;48.206;16.402;2023-10-19T02:51:54;23.70;;;19.00;;
13868;SDS011;7004;48.206;16.402;2023-10-19T02:54:25;21.60;;;17.17;;
13868;SDS011;7004;48.206;16.402;2023-10-19T02:56:54;23.40;;;18.57;;
13868;SDS011;7004;48.206;16.402;2023-10-19T02:59:22;21.77;;;17.87;;
13868;SDS011;7004;48.206;16.402;2023-10-19T03:01:51;22.67;;;18.83;;
13868;SDS011;7004;48.206;16.402;2023-10-19T03:04:35;23.60;;;19.00;;
13868;SDS011;7004;48.206;16.402;2023-10-19T03:07:04;23.83;;;19.23;;
13868;SDS011;7004;48.206;16.402;2023-10-19T03:09:33;23.63;;;19.40;;
13868;SDS011;7004;48.206;16.402;2023-10-19T03:12:02;22.23;;;18.27;;
13868;SDS011;7004;48.206;16.402;2023-10-19T03:14:30;21.83;;;18.70;;
13868;SDS011;7004;48.206;16.402;2023-10-19T03:16:57;23.97;;;18.90;;
13868;SDS011;7004;48.206;16.402;2023-10-19T03:19:25;23.97;;;19.03;;
13868;SDS011;7004;48.206;16.402;2023-10-19T03:21:52;23.47;;;19.27;;
13868;SDS011;7004;48.206;16.402;2023-10-19T03:24:20;24.33;;;19.53;;
13868;SDS011;7004;48.206;16.402;2023-10-19T03:27:06;22.37;;;19.13;;
13868;SDS011;7004;48.206;16.402;2023-10-19T03:29:43;23.23;;;19.30;;
13868;SDS011;7004;48.206;16.402;2023-10-19T03:32:12;24.67;;;18.77;;
13868;SDS011;7004;48.206;16.402;2023-10-19T03:34:39;26.00;;;18.90;;
13868;SDS011;7004;48.206;16.402;2023-10-19T03:37:08;24.37;;;19.87;;
13868;SDS011;7004;48.206;16.402;2023-10-19T03:39:39;25.43;;;19.63;;
13868;SDS011;7004;48.206;16.402;2023-10-19T03:42:07;24.57;;;19.33;;
13868;SDS011;7004;48.206;16.402;2023-10-19T03:44:33;29.07;;;19.40;;
13868;SDS011;7004;48.206;16.402;2023-10-19T03:47:09;24.50;;;20.33;;
13868;SDS011;7004;48.206;16.402;2023-10-19T03:49:40;26.80;;;20.30;;
13868;SDS011;7004;48.206;16.402;2023-10-19T03:52:07;25.70;;;19.87;;
13868;SDS011;7004;48.206;16.402;2023-10-19T03:54:34;25.47;;;20.73;;
13868;SDS011;7004;48.206;16.402;2023-10-19T03:57:09;23.90;;;19.80;;
13868;SDS011;7004;48.206;16.402;2023-10-19T03:59:41;30.70;;;21.17;;
13868;SDS011;7004;48.206;16.402;2023-10-19T04:02:07;23.87;;;20.00;;
13868;SDS011;7004;48.206;16.402;2023-10-19T04:04:44;27.20;;;20.63;;
13868;SDS011;7004;48.206;16.402;2023-10-19T04:07:14;25.00;;;20.37;;
13868;SDS011;7004;48.206;16.402;2023-10-19T04:09:48;27.17;;;20.17;;
13868;SDS011;7004;48.206;16.402;2023-10-19T04:12:37;26.40;;;19.93;;
13868;SDS011;7004;48.206;16.402;2023-10-19T04:15:07;24.73;;;19.70;;
13868;SDS011;7004;48.206;16.402;2023-10-19T04:17:41;25.33;;;19.87;;
13868;SDS011;7004;48.206;16.402;2023-10-19T04:20:08;25.97;;;22.00;;
13868;SDS011;7004;48.206;16.402;2023-10-19T04:22:48;26.47;;;21.00;;
13868;SDS011;7004;48.206;16.402;2023-10-19T04:25:16;27.73;;;20.73;;
13868;SDS011;7004;48.206;16.402;2023-10-19T04:28:01;27.00;;;20.73;;
13868;SDS011;7004;48.206;16.402;2023-10-19T04:30:28;25.93;;;20.20;;
13868;SDS011;7004;48.206;16.402;2023-10-19T04:32:55;25.40;;;20.77;;
13868;SDS011;7004;48.206;16.402;2023-10-19T04:35:22;22.77;;;19.90;;
13868;SDS011;7004;48.206;16.402;2023-10-19T04:37:52;25.23;;;20.47;;
13868;SDS011;7004;48.206;16.402;2023-10-19T04:40:19;25.53;;;21.30;;
13868;SDS011;7004;48.206;16.402;2023-10-19T04:42:48;28.57;;;21.00;;
13868;SDS011;7004;48.206;16.402;2023-10-19T04:45:16;25.13;;;20.83;;
13868;SDS011;7004;48.206;16.402;2023-10-19T04:47:43;24.03;;;20.93;;
13868;SDS011;7004;48.206;16.402;2023-10-19T04:50:10;34.00;;;21.73;;
13868;SDS011;7004;48.206;16.402;2023-10-19T04:52:37;27.20;;;20.67;;
13868;SDS011;7004;48.206;16.402;2023-10-19T04:55:04;25.90;;;21.47;;
13868;SDS011;7004;48.206;16.402;2023-10-19T04:57:31;27.43;;;21.83;;
13868;SDS011;7004;48.206;16.402;2023-10-19T04:59:58;26.10;;;21.00;;
13868;SDS011;7004;48.206;16.402;2023-10-19T05:02:26;26.30;;;21.23;;
13868;SDS011;7004;48.206;16.402;2023-10-19T05:04:52;28.57;;;22.17;;
13868;SDS011;7004;48.206;16.402;2023-10-19T05:07:19;24.60;;;20.20;;
13868;SDS011;7004;48.206;16.402;2023-10-19T05:09:45;24.17;;;19.80;;
13868;SDS011;7004;48.206;16.402;2023-10-19T05:12:13;28.17;;;21.40;;
13868;SDS011;7004;48.206;16.402;2023-10-19T05:14:40;28.80;;;20.80;;
13868;SDS011;7004;48.206;16.402;2023-10-19T05:17:08;23.37;;;19.60;;
13868;SDS011;7004;48.206;16.402;2023-10-19T05:19:35;26.63;;;20.73;;
13868;SDS011;7004;48.206;16.402;2023-10-19T05:22:04;24.77;;;21.43;;
13868;SDS011;7004;48.206;16.402;2023-10-19T05:24:31;25.03;;;20.63;;
13868;SDS011;7004;48.206;16.402;2023-10-19T05:26:58;28.53;;;20.73;;
13868;SDS011;7004;48.206;16.402;2023-10-19T05:29:24;26.77;;;21.47;;
13868;SDS011;7004;48.206;16.402;2023-10-19T05:31:51;23.23;;;19.70;;
13868;SDS011;7004;48.206;16.402;2023-10-19T05:34:23;26.00;;;21.57;;
13868;SDS011;7004;48.206;16.402;2023-10-19T05:36:52;28.33;;;21.00;;
13868;SDS011;7004;48.206;16.402;2023-10-19T05:39:19;27.20;;;21.33;;
13868;SDS011;7004;48.206;16.402;2023-10-19T05:41:53;25.33;;;20.70;;
13868;SDS011;7004;48.206;16.402;2023-10-19T05:44:26;28.23;;;20.20;;
13868;SDS011;7004;48.206;16.402;2023-10-19T05:46:56;28.63;;;21.77;;
13868;SDS011;7004;48.206;16.402;2023-10-19T05:49:23;21.80;;;18.90;;
13868;SDS011;7004;48.206;16.402;2023-10-19T05:51:50;32.23;;;20.70;;
13868;SDS011;7004;48.206;16.402;2023-10-19T05:54:16;26.70;;;21.03;;
13868;SDS011;7004;48.206;16.402;2023-10-19T05:56:42;25.60;;;21.03;;
13868;SDS011;7004;48.206;16.402;2023-10-19T05:59:08;28.47;;;22.30;;
13868;SDS011;7004;48.206;16.402;2023-10-19T06:01:36;28.73;;;20.60;;
13868;SDS011;7004;48.206;16.402;2023-10-19T06:04:06;28.73;;;21.10;;
13868;SDS011;7004;48.206;16.402;2023-10-19T06:06:33;25.47;;;20.80;;
13868;SDS011;7004;48.206;16.402;2023-10-19T06:08:59;27.97;;;20.67;;
13868;SDS011;7004;48.206;16.402;2023-10-19T06:11:28;29.70;;;21.50;;
13868;SDS011;7004;48.206;16.402;2023-10-19T06:13:57;25.73;;;21.20;;
13868;SDS011;7004;48.206;16.402;2023-10-19T06:16:25;25.93;;;20.63;;
13868;SDS011;7004;48.206;16.402;2023-10-19T06:18:51;26.03;;;20.13;;
13868;SDS011;7004;48.206;16.402;2023-10-19T06:21:17;27.97;;;21.37;;
13868;SDS011;7004;48.206;16.402;2023-10-19T06:23:44;25.37;;;20.67;;
13868;SDS011;7004;48.206;16.402;2023-10-19T06:26:11;25.33;;;20.67;;
13868;SDS011;7004;48.206;16.402;2023-10-19T06:28:38;27.47;;;21.27;;
13868;SDS011;7004;48.206;16.402;2023-10-19T06:31:06;28.13;;;22.00;;
13868;SDS011;7004;48.206;16.402;2023-10-19T06:33:32;26.90;;;21.83;;
13868;SDS011;7004;48.206;16.402;2023-10-19T06:35:59;29.43;;;21.13;;
13868;SDS011;7004;48.206;16.402;2023-10-19T06:38:29;28.07;;;21.13;;
13868;SDS011;7004;48.206;16.402;2023-10-19T06:40:56;28.80;;;21.97;;
13868;SDS011;7004;48.206;16.402;2023-10-19T06:43:23;32.03;;;21.30;;
13868;SDS011;7004;48.206;16.402;2023-10-19T06:45:54;26.83;;;21.13;;
13868;SDS011;7004;48.206;16.402;2023-10-19T06:48:20;26.27;;;21.67;;
13868;SDS011;7004;48.206;16.402;2023-10-19T06:50:47;27.73;;;21.13;;
13868;SDS011;7004;48.206;16.402;2023-10-19T06:53:13;27.77;;;21.50;;
13868;SDS011;7004;48.206;16.402;2023-10-19T06:55:39;26.63;;;20.63;;
13868;SDS011;7004;48.206;16.402;2023-10-19T06:58:05;28.47;;;22.07;;
13868;SDS011;7004;48.206;16.402;2023-10-19T07:00:32;25.20;;;21.77;;
13868;SDS011;7004;48.206;16.402;2023-10-19T07:03:02;26.03;;;20.97;;
13868;SDS011;7004;48.206;16.402;2023-10-19T07:05:29;27.67;;;21.87;;
13868;SDS011;7004;48.206;16.402;2023-10-19T07:07:55;29.83;;;22.87;;
13868;SDS011;7004;48.206;16.402;2023-10-19T07:10:24;27.20;;;22.27;;
13868;SDS011;7004;48.206;16.402;2023-10-19T07:12:53;30.17;;;22.83;;
13868;SDS011;7004;48.206;16.402;2023-10-19T07:15:21;27.40;;;21.87;;
13868;SDS011;7004;48.206;16.402;2023-10-19T07:17:49;26.23;;;21.03;;
13868;SDS011;7004;48.206;16.402;2023-10-19T07:20:25;28.27;;;22.33;;
13868;SDS011;7004;48.206;16.402;2023-10-19T07:23:01;31.53;;;23.07;;
13868;SDS011;7004;48.206;16.402;2023-10-19T07:25:45;28.63;;;21.77;;
13868;SDS011;7004;48.206;16.402;2023-10-19T07:28:21;26.13;;;21.93;;
13868;SDS011;7004;48.206;16.402;2023-10-19T07:30:51;28.00;;;22.10;;
13868;SDS011;7004;48.206;16.402;2023-10-19T07:33:18;32.97;;;21.90;;
13868;SDS011;7004;48.206;16.402;2023-10-19T07:35:45;32.10;;;24.47;;
13868;SDS011;7004;48.206;16.402;2023-10-19T07:38:13;27.60;;;23.13;;
13868;SDS011;7004;48.206;16.402;2023-10-19T07:40:40;31.37;;;24.13;;
13868;SDS011;7004;48.206;16.402;2023-10-19T07:43:07;28.73;;;22.50;;
13868;SDS011;7004;48.206;16.402;2023-10-19T07:45:34;28.20;;;23.10;;
13868;SDS011;7004;48.206;16.402;2023-10-19T07:48:02;27.07;;;22.23;;
13868;SDS011;7004;48.206;16.402;2023-10-19T07:50:32;30.13;;;23.80;;
13868;SDS011;7004;48.206;16.402;2023-10-19T07:53:03;31.23;;;23.37;;
13868;SDS011;7004;48.206;16.402;2023-10-19T07:55:30;28.40;;;22.67;;
13868;SDS011;7004;48.206;16.402;2023-10-19T07:57:57;31.37;;;23.10;;
13868;SDS011;7004;48.206;16.402;2023-10-19T08:00:29;31.70;;;24.13;;
13868;SDS011;7004;48.206;16.402;2023-10-19T08:02:56;29.83;;;23.43;;
13868;SDS011;7004;48.206;16.402;2023-10-19T08:05:22;33.87;;;23.87;;
13868;SDS011;7004;48.206;16.402;2023-10-19T08:07:48;30.63;;;25.03;;
13868;SDS011;7004;48.206;16.402;2023-10-19T08:10:15;29.10;;;22.57;;
13868;SDS011;7004;48.206;16.402;2023-10-19T08:12:44;29.07;;;24.57;;
13868;SDS011;7004;48.206;16.402;2023-10-19T08:15:15;30.13;;;22.73;;
13868;SDS011;7004;48.206;16.402;2023-10-19T08:17:43;28.43;;;23.27;;
13868;SDS011;7004;48.206;16.402;2023-10-19T08:20:12;29.20;;;23.33;;
13868;SDS011;7004;48.206;16.402;2023-10-19T08:22:48;30.10;;;24.03;;
13868;SDS011;7004;48.206;16.402;2023-10-19T08:25:17;28.10;;;23.90;;
13868;SDS011;7004;48.206;16.402;2023-10-19T08:27:43;28.00;;;23.20;;
13868;SDS011;7004;48.206;16.402;2023-10-19T08:30:11;27.33;;;22.87;;
13868;SDS011;7004;48.206;16.402;2023-10-19T08:32:38;27.07;;;23.03;;
13868;SDS011;7004;48.206;16.402;2023-10-19T08:35:08;26.50;;;21.97;;
13868;SDS011;7004;48.206;16.402;2023-10-19T08:37:38;31.13;;;25.00;;
13868;SDS011;7004;48.206;16.402;2023-10-19T08:40:06;30.60;;;23.20;;
13868;SDS011;7004;48.206;16.402;2023-10-19T08:42:39;28.40;;;22.70;;
13868;SDS011;7004;48.206;16.402;2023-10-19T08:45:07;27.57;;;22.23;;
13868;SDS011;7004;48.206;16.402;2023-10-19T08:47:37;28.20;;;22.37;;
13868;SDS011;7004;48.206;16.402;2023-10-19T08:50:13;28.17;;;23.00;;
13868;SDS011;7004;48.206;16.402;2023-10-19T08:52:41;30.43;;;23.80;;
13868;SDS011;7004;48.206;16.402;2023-10-19T08:55:08;26.90;;;23.70;;
13868;SDS011;7004;48.206;16.402;2023-10-19T08:57:39;29.23;;;23.63;;
13868;SDS011;7004;48.206;16.402;2023-10-19T09:00:06;28.33;;;23.23;;
13868;SDS011;7004;48.206;16.402;2023-10-19T09:02:33;26.43;;;22.43;;
13868;SDS011;7004;48.206;16.402;2023-10-19T09:05:01;30.97;;;22.87;;
13868;SDS011;7004;48.206;16.402;2023-10-19T09:07:34;27.93;;;23.37;;
13868;SDS011;7004;48.206;16.402;2023-10-19T09:10:00;28.23;;;22.87;;
13868;SDS011;7004;48.206;16.402;2023-10-19T09:12:28;29.80;;;23.20;;
13868;SDS011;7004;48.206;16.402;2023-10-19T09:14:55;29.57;;;22.10;;
13868;SDS011;7004;48.206;16.402;2023-10-19T09:17:28;25.77;;;21.70;;
13868;SDS011;7004;48.206;16.402;2023-10-19T09:19:55;26.80;;;20.43;;
13868;SDS011;7004;48.206;16.402;2023-10-19T09:22:22;26.50;;;21.43;;
13868;SDS011;7004;48.206;16.402;2023-10-19T09:24:49;25.63;;;21.17;;
13868;SDS011;7004;48.206;16.402;2023-10-19T09:27:21;27.53;;;21.47;;
13868;SDS011;7004;48.206;16.402;2023-10-19T09:29:48;25.97;;;20.40;;
13868;SDS011;7004;48.206;16.402;2023-10-19T09:32:18;27.20;;;21.83;;
13868;SDS011;7004;48.206;16.402;2023-10-19T09:34:44;27.43;;;21.23;;
13868;SDS011;7004;48.206;16.402;2023-10-19T09:37:15;27.40;;;20.93;;
13868;SDS011;7004;48.206;16.402;2023-10-19T09:39:43;24.43;;;20.23;;
13868;SDS011;7004;48.206;16.402;2023-10-19T09:42:10;26.20;;;20.03;;
13868;SDS011;7004;48.206;16.402;2023-10-19T09:44:41;26.67;;;20.23;;
13868;SDS011;7004;48.206;16.402;2023-10-19T09:47:17;22.10;;;19.70;;
13868;SDS011;7004;48.206;16.402;2023-10-19T09:50:00;28.00;;;20.93;;
13868;SDS011;7004;48.206;16.402;2023-10-19T09:52:32;24.37;;;20.10;;
13868;SDS011;7004;48.206;16.402;2023-10-19T09:58:24;24.80;;;20.40;;
13868;SDS011;7004;48.206;16.402;2023-10-19T10:00:48;23.50;;;19.57;;
13868;SDS011;7004;48.206;16.402;2023-10-19T10:06:14;24.30;;;20.37;;
13868;SDS011;7004;48.206;16.402;2023-10-19T10:08:43;26.40;;;20.60;;
13868;SDS011;7004;48.206;16.402;2023-10-19T10:11:15;25.97;;;21.13;;
13868;SDS011;7004;48.206;16.402;2023-10-19T10:13:50;24.37;;;20.17;;
13868;SDS011;7004;48.206;16.402;2023-10-19T10:16:17;26.60;;;19.27;;
13868;SDS011;7004;48.206;16.402;2023-10-19T10:18:45;25.77;;;20.03;;
13868;SDS011;7004;48.206;16.402;2023-10-19T10:21:14;24.97;;;20.50;;
13868;SDS011;7004;48.206;16.402;2023-10-19T10:26:20;25.90;;;18.87;;
13868;SDS011;7004;48.206;16.402;2023-10-19T10:29:08;24.03;;;19.37;;
13868;SDS011;7004;48.206;16.402;2023-10-19T10:31:45;21.37;;;18.30;;
13868;SDS011;7004;48.206;16.402;2023-10-19T10:37:08;23.17;;;18.70;;
13868;SDS011;7004;48.206;16.402;2023-10-19T10:39:37;26.10;;;19.30;;
13868;SDS011;7004;48.206;16.402;2023-10-19T10:42:06;21.97;;;18.43;;
13868;SDS011;7004;48.206;16.402;2023-10-19T10:44:40;24.57;;;18.50;;
13868;SDS011;7004;48.206;16.402;2023-10-19T10:47:11;24.93;;;18.47;;
13868;SDS011;7004;48.206;16.402;2023-10-19T10:49:48;23.67;;;17.63;;
13868;SDS011;7004;48.206;16.402;2023-10-19T10:54:55;23.03;;;17.27;;
13868;SDS011;7004;48.206;16.402;2023-10-19T10:57:22;22.13;;;18.67;;
13868;SDS011;7004;48.206;16.402;2023-10-19T11:02:29;23.10;;;17.97;;
13868;SDS011;7004;48.206;16.402;2023-10-19T11:04:55;20.90;;;18.23;;
13868;SDS011;7004;48.206;16.402;2023-10-19T11:07:21;21.53;;;17.57;;
13868;SDS011;7004;48.206;16.402;2023-10-19T11:09:49;20.30;;;17.27;;
13868;SDS011;7004;48.206;16.402;2023-10-19T11:12:16;25.30;;;19.63;;
13868;SDS011;7004;48.206;16.402;2023-10-19T11:14:52;22.07;;;17.43;;
13868;SDS011;7004;48.206;16.402;2023-10-19T11:17:26;22.57;;;17.40;;
13868;SDS011;7004;48.206;16.402;2023-10-19T11:19:57;20.90;;;17.30;;
13868;SDS011;7004;48.206;16.402;2023-10-19T11:22:25;23.13;;;16.63;;
13868;SDS011;7004;48.206;16.402;2023-10-19T11:24:52;18.93;;;15.77;;
13868;SDS011;7004;48.206;16.402;2023-10-19T11:27:24;19.33;;;15.47;;
13868;SDS011;7004;48.206;16.402;2023-10-19T11:29:58;18.63;;;16.37;;
13868;SDS011;7004;48.206;16.402;2023-10-19T11:32:37;21.60;;;16.67;;
13868;SDS011;7004;48.206;16.402;2023-10-19T11:35:04;20.03;;;17.20;;
13868;SDS011;7004;48.206;16.402;2023-10-19T11:40:15;18.33;;;15.70;;
13868;SDS011;7004;48.206;16.402;2023-10-19T11:42:42;21.37;;;16.07;;
13868;SDS011;7004;48.206;16.402;2023-10-19T11:45:08;18.40;;;15.17;;
13868;SDS011;7004;48.206;16.402;2023-10-19T11:47:37;16.97;;;15.17;;
13868;SDS011;7004;48.206;16.402;2023-10-19T11:50:03;19.00;;;14.97;;
13868;SDS011;7004;48.206;16.402;2023-10-19T11:52:32;17.27;;;15.20;;
13868;SDS011;7004;48.206;16.402;2023-10-19T11:54:59;17.57;;;15.60;;
13868;SDS011;7004;48.206;16.402;2023-10-19T11:57:27;20.10;;;17.43;;
13868;SDS011;7004;48.206;16.402;2023-10-19T11:59:53;17.90;;;15.77;;
13868;SDS011;7004;48.206;16.402;2023-10-19T12:02:19;17.93;;;14.80;;
13868;SDS011;7004;48.206;16.402;2023-10-19T12:04:46;15.80;;;13.73;;
13868;SDS011;7004;48.206;16.402;2023-10-19T12:07:12;17.17;;;15.33;;
13868;SDS011;7004;48.206;16.402;2023-10-19T12:09:39;21.30;;;15.00;;
13868;SDS011;7004;48.206;16.402;2023-10-19T12:12:10;16.43;;;14.67;;
13868;SDS011;7004;48.206;16.402;2023-10-19T12:14:36;18.63;;;15.27;;
13868;SDS011;7004;48.206;16.402;2023-10-19T12:17:02;20.03;;;16.00;;
13868;SDS011;7004;48.206;16.402;2023-10-19T12:19:30;17.17;;;14.53;;
13868;SDS011;7004;48.206;16.402;2023-10-19T12:21:56;22.17;;;16.07;;
13868;SDS011;7004;48.206;16.402;2023-10-19T12:24:24;20.93;;;16.77;;
13868;SDS011;7004;48.206;16.402;2023-10-19T12:26:53;21.00;;;15.67;;
13868;SDS011;7004;48.206;16.402;2023-10-19T12:29:23;21.10;;;16.80;;
13868;SDS011;7004;48.206;16.402;2023-10-19T12:31:54;19.13;;;16.33;;
13868;SDS011;7004;48.206;16.402;2023-10-19T12:34:23;24.00;;;19.50;;
13868;SDS011;7004;48.206;16.402;2023-10-19T12:36:49;24.00;;;20.10;;
13868;SDS011;7004;48.206;16.402;2023-10-19T12:39:17;22.47;;;18.77;;
13868;SDS011;7004;48.206;16.402;2023-10-19T12:42:04;28.67;;;21.03;;
13868;SDS011;7004;48.206;16.402;2023-10-19T12:44:30;31.20;;;22.07;;
13868;SDS011;7004;48.206;16.402;2023-10-19T12:47:05;28.00;;;21.80;;
13868;SDS011;7004;48.206;16.402;2023-10-19T12:49:36;30.90;;;22.20;;
13868;SDS011;7004;48.206;16.402;2023-10-19T12:52:03;26.90;;;22.67;;
13868;SDS011;7004;48.206;16.402;2023-10-19T12:54:29;30.63;;;23.13;;
13868;SDS011;7004;48.206;16.402;2023-10-19T12:56:56;31.87;;;23.23;;
13868;SDS011;7004;48.206;16.402;2023-10-19T12:59:23;27.63;;;22.80;;
13868;SDS011;7004;48.206;16.402;2023-10-19T13:01:49;38.20;;;23.47;;
13868;SDS011;7004;48.206;16.402;2023-10-19T13:04:20;27.97;;;23.63;;
13868;SDS011;7004;48.206;16.402;2023-10-19T13:06:49;31.80;;;23.10;;
13868;SDS011;7004;48.206;16.402;2023-10-19T13:09:17;26.00;;;22.23;;
13868;SDS011;7004;48.206;16.402;2023-10-19T13:11:57;35.40;;;22.80;;
13868;SDS011;7004;48.206;16.402;2023-10-19T13:14:25;34.10;;;23.63;;
13868;SDS011;7004;48.206;16.402;2023-10-19T13:16:53;32.43;;;22.70;;
13868;SDS011;7004;48.206;16.402;2023-10-19T13:19:20;29.90;;;22.80;;
13868;SDS011;7004;48.206;16.402;2023-10-19T13:21:50;33.20;;;22.47;;
13868;SDS011;7004;48.206;16.402;2023-10-19T13:24:18;28.90;;;21.37;;
13868;SDS011;7004;48.206;16.402;2023-10-19T13:26:47;31.47;;;21.67;;
13868;SDS011;7004;48.206;16.402;2023-10-19T13:29:14;29.23;;;20.50;;
13868;SDS011;7004;48.206;16.402;2023-10-19T13:31:40;25.57;;;20.67;;
13868;SDS011;7004;48.206;16.402;2023-10-19T13:34:14;26.73;;;20.40;;
13868;SDS011;7004;48.206;16.402;2023-10-19T13:36:43;26.93;;;18.83;;
13868;SDS011;7004;48.206;16.402;2023-10-19T13:39:12;26.87;;;19.97;;
13868;SDS011;7004;48.206;16.402;2023-10-19T13:41:42;24.97;;;19.73;;
13868;SDS011;7004;48.206;16.402;2023-10-19T13:44:09;29.77;;;18.47;;
13868;SDS011;7004;48.206;16.402;2023-10-19T13:46:38;25.00;;;18.00;;
13868;SDS011;7004;48.206;16.402;2023-10-19T13:49:05;26.77;;;19.70;;
13868;SDS011;7004;48.206;16.402;2023-10-19T13:51:31;25.37;;;18.97;;
13868;SDS011;7004;48.206;16.402;2023-10-19T13:53:57;27.67;;;20.37;;
13868;SDS011;7004;48.206;16.402;2023-10-19T13:56:23;25.10;;;19.37;;
13868;SDS011;7004;48.206;16.402;2023-10-19T13:58:51;28.53;;;17.83;;
13868;SDS011;7004;48.206;16.402;2023-10-19T14:01:17;24.13;;;18.03;;
13868;SDS011;7004;48.206;16.402;2023-10-19T14:03:44;25.23;;;17.83;;
13868;SDS011;7004;48.206;16.402;2023-10-19T14:06:14;23.33;;;17.67;;
13868;SDS011;7004;48.206;16.402;2023-10-19T14:08:41;28.83;;;18.57;;
13868;SDS011;7004;48.206;16.402;2023-10-19T14:11:07;29.23;;;18.43;;
13868;SDS011;7004;48.206;16.402;2023-10-19T14:13:34;22.60;;;17.43;;
13868;SDS011;7004;48.206;16.402;2023-10-19T14:16:04;24.53;;;18.10;;
13868;SDS011;7004;48.206;16.402;2023-10-19T14:18:32;23.77;;;18.37;;
13868;SDS011;7004;48.206;16.402;2023-10-19T14:20:59;22.67;;;17.57;;
13868;SDS011;7004;48.206;16.402;2023-10-19T14:23:25;26.30;;;17.77;;
13868;SDS011;7004;48.206;16.402;2023-10-19T14:25:52;23.30;;;16.70;;
13868;SDS011;7004;48.206;16.402;2023-10-19T14:28:18;23.00;;;17.30;;
13868;SDS011;7004;48.206;16.402;2023-10-19T14:30:44;24.60;;;17.20;;
13868;SDS011;7004;48.206;16.402;2023-10-19T14:33:10;22.97;;;17.17;;
13868;SDS011;7004;48.206;16.402;2023-10-19T14:35:37;27.60;;;17.73;;
13868;SDS011;7004;48.206;16.402;2023-10-19T14:38:07;29.87;;;19.17;;
13868;SDS011;7004;48.206;16.402;2023-10-19T14:40:34;28.53;;;19.70;;
13868;SDS011;7004;48.206;16.402;2023-10-19T14:43:00;27.17;;;19.33;;
13868;SDS011;7004;48.206;16.402;2023-10-19T14:45:27;24.47;;;18.27;;
13868;SDS011;7004;48.206;16.402;2023-10-19T14:47:54;31.33;;;19.60;;
13868;SDS011;7004;48.206;16.402;2023-10-19T14:50:23;24.37;;;17.53;;
13868;SDS011;7004;48.206;16.402;2023-10-19T14:52:51;26.90;;;18.50;;
13868;SDS011;7004;48.206;16.402;2023-10-19T14:55:19;27.63;;;18.40;;